sensor_id;sensor_type;location;lat;lon;timestamp;pressure;altitude;pressure_sealevel;temperature;humidity
33185;BME280;19550;42.872;25.494;2023-12-04T00:00:37;96948.00;;;2.41;100.00
33185;BME280;19550;42.872;25.494;2023-12-04T00:03:04;96889.50;;;1.98;100.00
33185;BME280;19550;42.872;25.494;2023-12-04T00:05:31;96926.88;;;2.15;100.00
33185;BME280;19550;42.872;25.494;2023-12-04T00:07:58;96952.81;;;2.34;100.00
33185;BME280;19550;42.872;25.494;2023-12-04T00:10:25;96972.31;;;2.37;100.00
33185;BME280;19550;42.872;25.494;2023-12-04T00:12:52;96968.09;;;2.30;100.00
33185;BME280;19550;42.872;25.494;2023-12-04T00:15:21;96926.75;;;2.05;100.00
33185;BME280;19550;42.872;25.494;2023-12-04T00:17:47;96971.97;;;2.34;100.00
33185;BME280;19550;42.872;25.494;2023-12-04T00:20:14;96980.44;;;2.32;100.00
33185;BME280;19550;42.872;25.494;2023-12-04T00:22:41;96981.19;;;2.28;100.00
33185;BME280;19550;42.872;25.494;2023-12-04T00:25:08;96983.38;;;2.26;100.00
33185;BME280;19550;42.872;25.494;2023-12-04T00:27:35;96989.94;;;2.25;100.00
33185;BME280;19550;42.872;25.494;2023-12-04T00:30:03;96949.72;;;2.04;100.00
33185;BME280;19550;42.872;25.494;2023-12-04T00:32:32;96970.22;;;2.06;100.00
33185;BME280;19550;42.872;25.494;2023-12-04T00:34:59;97006.41;;;2.30;100.00
33185;BME280;19550;42.872;25.494;2023-12-04T00:37:26;97008.53;;;2.28;100.00
33185;BME280;19550;42.872;25.494;2023-12-04T00:39:53;97010.75;;;2.09;100.00
33185;BME280;19550;42.872;25.494;2023-12-04T00:42:20;97012.66;;;2.09;100.00
33185;BME280;19550;42.872;25.494;2023-12-04T00:44:47;97022.34;;;2.16;100.00
33185;BME280;19550;42.872;25.494;2023-12-04T00:47:14;97026.16;;;2.15;100.00
33185;BME280;19550;42.872;25.494;2023-12-04T00:49:42;97016.28;;;2.14;100.00
33185;BME280;19550;42.872;25.494;2023-12-04T00:52:09;97028.00;;;2.10;100.00
33185;BME280;19550;42.872;25.494;2023-12-04T00:54:38;97012.84;;;2.02;100.00
33185;BME280;19550;42.872;25.494;2023-12-04T00:57:05;97013.19;;;1.89;100.00
33185;BME280;19550;42.872;25.494;2023-12-04T00:59:32;96989.94;;;1.70;100.00
33185;BME280;19550;42.872;25.494;2023-12-04T01:01:59;97025.03;;;1.94;100.00
33185;BME280;19550;42.872;25.494;2023-12-04T01:04:26;97030.56;;;1.99;100.00
33185;BME280;19550;42.872;25.494;2023-12-04T01:06:54;97035.88;;;1.89;100.00
33185;BME280;19550;42.872;25.494;2023-12-04T01:09:21;97023.41;;;1.77;100.00
33185;BME280;19550;42.872;25.494;2023-12-04T01:11:50;97038.19;;;1.81;100.00
33185;BME280;19550;42.872;25.494;2023-12-04T01:14:16;97008.75;;;1.66;100.00
33185;BME280;19550;42.872;25.494;2023-12-04T01:16:43;97043.13;;;1.79;100.00
33185;BME280;19550;42.872;25.494;2023-12-04T01:19:10;97045.41;;;1.87;100.00
33185;BME280;19550;42.872;25.494;2023-12-04T01:21:37;97028.19;;;1.70;100.00
33185;BME280;19550;42.872;25.494;2023-12-04T01:24:06;97024.22;;;1.77;100.00
33185;BME280;19550;42.872;25.494;2023-12-04T01:26:32;97040.78;;;1.71;100.00
33185;BME280;19550;42.872;25.494;2023-12-04T01:28:59;97010.38;;;1.34;100.00
33185;BME280;19550;42.872;25.494;2023-12-04T01:31:26;96992.09;;;1.17;100.00
33185;BME280;19550;42.872;25.494;2023-12-04T01:33:53;96988.50;;;1.00;100.00
33185;BME280;19550;42.872;25.494;2023-12-04T01:36:20;97016.00;;;1.27;100.00
33185;BME280;19550;42.872;25.494;2023-12-04T01:38:47;97035.22;;;1.49;100.00
33185;BME280;19550;42.872;25.494;2023-12-04T01:41:15;97044.34;;;1.54;100.00
33185;BME280;19550;42.872;25.494;2023-12-04T01:43:42;97040.88;;;1.59;100.00
33185;BME280;19550;42.872;25.494;2023-12-04T01:46:10;97040.28;;;1.74;100.00
33185;BME280;19550;42.872;25.494;2023-12-04T01:48:37;97052.22;;;1.84;100.00
33185;BME280;19550;42.872;25.494;2023-12-04T01:51:07;97028.63;;;1.78;100.00
33185;BME280;19550;42.872;25.494;2023-12-04T01:53:38;97029.28;;;1.69;100.00
33185;BME280;19550;42.872;25.494;2023-12-04T01:56:06;97055.34;;;1.76;100.00
33185;BME280;19550;42.872;25.494;2023-12-04T01:58:34;97052.31;;;1.73;100.00
33185;BME280;19550;42.872;25.494;2023-12-04T02:01:01;97051.63;;;1.82;100.00
33185;BME280;19550;42.872;25.494;2023-12-04T02:03:29;97054.03;;;1.62;100.00
33185;BME280;19550;42.872;25.494;2023-12-04T02:05:54;97048.72;;;1.55;100.00
33185;BME280;19550;42.872;25.494;2023-12-04T02:08:25;97048.41;;;1.52;100.00
33185;BME280;19550;42.872;25.494;2023-12-04T02:10:53;97066.69;;;1.51;100.00
33185;BME280;19550;42.872;25.494;2023-12-04T02:13:20;97063.00;;;1.29;100.00
33185;BME280;19550;42.872;25.494;2023-12-04T02:15:49;97069.69;;;1.22;100.00
33185;BME280;19550;42.872;25.494;2023-12-04T02:18:18;97063.75;;;1.25;100.00
33185;BME280;19550;42.872;25.494;2023-12-04T02:20:46;97067.06;;;1.27;100.00
33185;BME280;19550;42.872;25.494;2023-12-04T02:23:13;97072.88;;;1.30;100.00
33185;BME280;19550;42.872;25.494;2023-12-04T02:25:41;97061.44;;;1.33;100.00
33185;BME280;19550;42.872;25.494;2023-12-04T02:28:12;97076.03;;;1.39;100.00
33185;BME280;19550;42.872;25.494;2023-12-04T02:30:41;97073.69;;;1.31;100.00
33185;BME280;19550;42.872;25.494;2023-12-04T02:33:11;97075.16;;;1.22;100.00
33185;BME280;19550;42.872;25.494;2023-12-04T02:35:40;97081.28;;;1.29;100.00
33185;BME280;19550;42.872;25.494;2023-12-04T02:38:08;97077.34;;;1.36;100.00
33185;BME280;19550;42.872;25.494;2023-12-04T02:40:36;97078.56;;;1.29;100.00
33185;BME280;19550;42.872;25.494;2023-12-04T02:43:04;97078.41;;;1.18;100.00
33185;BME280;19550;42.872;25.494;2023-12-04T02:45:31;97071.28;;;1.17;100.00
33185;BME280;19550;42.872;25.494;2023-12-04T02:47:58;97075.06;;;1.16;100.00
33185;BME280;19550;42.872;25.494;2023-12-04T02:50:25;97069.69;;;1.22;100.00
33185;BME280;19550;42.872;25.494;2023-12-04T02:52:51;97055.13;;;1.16;100.00
33185;BME280;19550;42.872;25.494;2023-12-04T02:55:19;97068.72;;;1.28;100.00
33185;BME280;19550;42.872;25.494;2023-12-04T02:57:46;97067.06;;;1.27;100.00
33185;BME280;19550;42.872;25.494;2023-12-04T03:00:15;97079.56;;;1.23;100.00
33185;BME280;19550;42.872;25.494;2023-12-04T03:02:42;97075.00;;;1.28;100.00
33185;BME280;19550;42.872;25.494;2023-12-04T03:05:09;97102.22;;;1.23;100.00
33185;BME280;19550;42.872;25.494;2023-12-04T03:07:36;97018.97;;;0.80;100.00
33185;BME280;19550;42.872;25.494;2023-12-04T03:10:05;97037.53;;;0.95;100.00
33185;BME280;19550;42.872;25.494;2023-12-04T03:12:32;97093.34;;;1.44;100.00
33185;BME280;19550;42.872;25.494;2023-12-04T03:14:59;97079.91;;;1.26;100.00
33185;BME280;19550;42.872;25.494;2023-12-04T03:17:27;97026.47;;;1.02;100.00
33185;BME280;19550;42.872;25.494;2023-12-04T03:19:55;97090.38;;;1.46;100.00
33185;BME280;19550;42.872;25.494;2023-12-04T03:22:22;97090.38;;;1.46;100.00
33185;BME280;19550;42.872;25.494;2023-12-04T03:24:49;97083.63;;;1.37;100.00
33185;BME280;19550;42.872;25.494;2023-12-04T03:27:16;97034.50;;;1.08;100.00
33185;BME280;19550;42.872;25.494;2023-12-04T03:29:43;97104.06;;;1.34;100.00
33185;BME280;19550;42.872;25.494;2023-12-04T03:32:10;97101.75;;;1.26;100.00
33185;BME280;19550;42.872;25.494;2023-12-04T03:34:38;97063.53;;;0.98;100.00
33185;BME280;19550;42.872;25.494;2023-12-04T03:37:05;97101.97;;;1.25;100.00
33185;BME280;19550;42.872;25.494;2023-12-04T03:39:32;97080.34;;;1.06;100.00
33185;BME280;19550;42.872;25.494;2023-12-04T03:41:59;97044.63;;;0.79;100.00
33185;BME280;19550;42.872;25.494;2023-12-04T03:44:25;97106.41;;;1.14;100.00
33185;BME280;19550;42.872;25.494;2023-12-04T03:46:52;97083.47;;;0.98;100.00
33185;BME280;19550;42.872;25.494;2023-12-04T03:49:19;97083.88;;;1.07;100.00
33185;BME280;19550;42.872;25.494;2023-12-04T03:51:47;97068.00;;;1.04;100.00
33185;BME280;19550;42.872;25.494;2023-12-04T03:54:14;97091.91;;;1.25;100.00
33185;BME280;19550;42.872;25.494;2023-12-04T03:56:41;97065.03;;;1.05;100.00
33185;BME280;19550;42.872;25.494;2023-12-04T03:59:08;97109.25;;;1.19;100.00
33185;BME280;19550;42.872;25.494;2023-12-04T04:01:35;97106.16;;;1.15;100.00
33185;BME280;19550;42.872;25.494;2023-12-04T04:04:02;97104.31;;;1.04;100.00
33185;BME280;19550;42.872;25.494;2023-12-04T04:06:29;97112.66;;;1.26;100.00
33185;BME280;19550;42.872;25.494;2023-12-04T04:08:57;97054.59;;;1.02;100.00
33185;BME280;19550;42.872;25.494;2023-12-04T04:11:24;97066.19;;;1.09;100.00
33185;BME280;19550;42.872;25.494;2023-12-04T04:13:51;97102.31;;;1.28;100.00
33185;BME280;19550;42.872;25.494;2023-12-04T04:16:18;97109.19;;;1.31;100.00
33185;BME280;19550;42.872;25.494;2023-12-04T04:18:44;97063.75;;;0.96;100.00
33185;BME280;19550;42.872;25.494;2023-12-04T04:21:11;97115.03;;;1.23;100.00
33185;BME280;19550;42.872;25.494;2023-12-04T04:23:38;97121.56;;;1.22;100.00
33185;BME280;19550;42.872;25.494;2023-12-04T04:26:07;97121.81;;;1.20;100.00
33185;BME280;19550;42.872;25.494;2023-12-04T04:28:34;97108.44;;;1.07;100.00
33185;BME280;19550;42.872;25.494;2023-12-04T04:31:00;97116.75;;;1.12;100.00
33185;BME280;19550;42.872;25.494;2023-12-04T04:33:27;97120.19;;;1.07;100.00
33185;BME280;19550;42.872;25.494;2023-12-04T04:35:56;97121.84;;;1.08;100.00
33185;BME280;19550;42.872;25.494;2023-12-04T04:38:23;97090.22;;;0.96;100.00
33185;BME280;19550;42.872;25.494;2023-12-04T04:40:50;97080.53;;;0.88;100.00
33185;BME280;19550;42.872;25.494;2023-12-04T04:43:19;97052.69;;;0.74;100.00
33185;BME280;19550;42.872;25.494;2023-12-04T04:45:46;97076.25;;;0.92;100.00
33185;BME280;19550;42.872;25.494;2023-12-04T04:48:13;97049.53;;;0.66;100.00
33185;BME280;19550;42.872;25.494;2023-12-04T04:50:40;97076.47;;;0.91;100.00
33185;BME280;19550;42.872;25.494;2023-12-04T04:53:07;97052.69;;;0.74;100.00
33185;BME280;19550;42.872;25.494;2023-12-04T04:55:34;97092.22;;;1.00;100.00
33185;BME280;19550;42.872;25.494;2023-12-04T04:58:05;97124.03;;;1.06;100.00
33185;BME280;19550;42.872;25.494;2023-12-04T05:00:33;97132.19;;;1.35;100.00
33185;BME280;19550;42.872;25.494;2023-12-04T05:03:00;97130.91;;;1.37;100.00
33185;BME280;19550;42.872;25.494;2023-12-04T05:05:27;97135.22;;;1.50;100.00
33185;BME280;19550;42.872;25.494;2023-12-04T05:07:54;97110.72;;;1.38;100.00
33185;BME280;19550;42.872;25.494;2023-12-04T05:10:21;97141.66;;;1.44;100.00
33185;BME280;19550;42.872;25.494;2023-12-04T05:12:47;97127.09;;;1.38;100.00
33185;BME280;19550;42.872;25.494;2023-12-04T05:15:14;97134.59;;;1.31;100.00
33185;BME280;19550;42.872;25.494;2023-12-04T05:17:43;97114.03;;;1.12;100.00
33185;BME280;19550;42.872;25.494;2023-12-04T05:20:10;97142.25;;;1.17;100.00
33185;BME280;19550;42.872;25.494;2023-12-04T05:22:37;97144.59;;;1.26;100.00
33185;BME280;19550;42.872;25.494;2023-12-04T05:25:04;97147.22;;;1.20;100.00
33185;BME280;19550;42.872;25.494;2023-12-04T05:27:31;97148.63;;;1.23;100.00
33185;BME280;19550;42.872;25.494;2023-12-04T05:29:58;97150.22;;;1.19;100.00
33185;BME280;19550;42.872;25.494;2023-12-04T05:32:25;97147.91;;;1.28;100.00
33185;BME280;19550;42.872;25.494;2023-12-04T05:34:53;97163.94;;;1.24;100.00
33185;BME280;19550;42.872;25.494;2023-12-04T05:37:20;97157.66;;;1.24;100.00
33185;BME280;19550;42.872;25.494;2023-12-04T05:39:47;97158.06;;;1.44;100.00
33185;BME280;19550;42.872;25.494;2023-12-04T05:42:14;97171.41;;;1.57;100.00
33185;BME280;19550;42.872;25.494;2023-12-04T05:44:40;97169.13;;;1.66;100.00
33185;BME280;19550;42.872;25.494;2023-12-04T05:47:07;97172.00;;;1.59;100.00
33185;BME280;19550;42.872;25.494;2023-12-04T05:49:35;97177.66;;;1.41;100.00
33185;BME280;19550;42.872;25.494;2023-12-04T05:52:03;97179.16;;;1.48;100.00
33185;BME280;19550;42.872;25.494;2023-12-04T05:54:30;97187.97;;;1.50;100.00
33185;BME280;19550;42.872;25.494;2023-12-04T05:56:57;97147.53;;;1.36;100.00
33185;BME280;19550;42.872;25.494;2023-12-04T05:59:24;97179.75;;;1.50;100.00
33185;BME280;19550;42.872;25.494;2023-12-04T06:01:51;97189.25;;;1.48;100.00
33185;BME280;19550;42.872;25.494;2023-12-04T06:04:17;97188.34;;;1.42;100.00
33185;BME280;19550;42.872;25.494;2023-12-04T06:06:44;97202.97;;;1.36;100.00
33185;BME280;19550;42.872;25.494;2023-12-04T06:09:12;97183.25;;;1.34;100.00
33185;BME280;19550;42.872;25.494;2023-12-04T06:11:40;97210.56;;;1.46;100.00
33185;BME280;19550;42.872;25.494;2023-12-04T06:14:07;97211.25;;;1.41;100.00
33185;BME280;19550;42.872;25.494;2023-12-04T06:16:34;97203.41;;;1.45;100.00
33185;BME280;19550;42.872;25.494;2023-12-04T06:19:01;97209.84;;;1.39;100.00
33185;BME280;19550;42.872;25.494;2023-12-04T06:21:27;97216.72;;;1.41;100.00
33185;BME280;19550;42.872;25.494;2023-12-04T06:23:55;97214.16;;;1.63;100.00
33185;BME280;19550;42.872;25.494;2023-12-04T06:26:24;97212.41;;;1.57;100.00
33185;BME280;19550;42.872;25.494;2023-12-04T06:28:52;97216.16;;;1.39;100.00
33185;BME280;19550;42.872;25.494;2023-12-04T06:31:19;97196.91;;;1.34;100.00
33185;BME280;19550;42.872;25.494;2023-12-04T06:33:47;97221.22;;;1.47;100.00
33185;BME280;19550;42.872;25.494;2023-12-04T06:36:15;97227.38;;;1.54;100.00
33185;BME280;19550;42.872;25.494;2023-12-04T06:38:47;97222.19;;;1.41;100.00
33185;BME280;19550;42.872;25.494;2023-12-04T06:41:14;97230.22;;;1.48;100.00
33185;BME280;19550;42.872;25.494;2023-12-04T06:43:45;97223.00;;;1.42;100.00
33185;BME280;19550;42.872;25.494;2023-12-04T06:46:14;97222.88;;;1.48;100.00
33185;BME280;19550;42.872;25.494;2023-12-04T06:48:43;97232.81;;;1.54;100.00
33185;BME280;19550;42.872;25.494;2023-12-04T06:51:10;97243.44;;;1.51;100.00
33185;BME280;19550;42.872;25.494;2023-12-04T06:53:36;97236.75;;;1.47;100.00
33185;BME280;19550;42.872;25.494;2023-12-04T06:56:04;97241.75;;;1.50;100.00
33185;BME280;19550;42.872;25.494;2023-12-04T06:58:31;97244.72;;;1.48;100.00
33185;BME280;19550;42.872;25.494;2023-12-04T07:01:00;97244.94;;;1.58;100.00
33185;BME280;19550;42.872;25.494;2023-12-04T07:03:27;97245.38;;;1.67;100.00
33185;BME280;19550;42.872;25.494;2023-12-04T07:05:54;97238.00;;;1.68;100.00
33185;BME280;19550;42.872;25.494;2023-12-04T07:08:21;97243.91;;;1.76;100.00
33185;BME280;19550;42.872;25.494;2023-12-04T07:10:48;97251.91;;;1.94;100.00
33185;BME280;19550;42.872;25.494;2023-12-04T07:13:15;97182.34;;;1.57;100.00
33185;BME280;19550;42.872;25.494;2023-12-04T07:15:41;97228.13;;;1.95;100.00
33185;BME280;19550;42.872;25.494;2023-12-04T07:18:10;97233.06;;;2.10;100.00
33185;BME280;19550;42.872;25.494;2023-12-04T07:20:36;97249.56;;;2.48;100.00
33185;BME280;19550;42.872;25.494;2023-12-04T07:23:03;97255.72;;;2.55;100.00
33185;BME280;19550;42.872;25.494;2023-12-04T07:25:30;97256.44;;;2.67;100.00
33185;BME280;19550;42.872;25.494;2023-12-04T07:27:57;97269.81;;;2.80;98.86
33185;BME280;19550;42.872;25.494;2023-12-04T07:30:24;97266.00;;;2.82;94.21
33185;BME280;19550;42.872;25.494;2023-12-04T07:32:51;97235.91;;;2.48;95.68
33185;BME280;19550;42.872;25.494;2023-12-04T07:35:20;97235.41;;;2.34;94.31
33185;BME280;19550;42.872;25.494;2023-12-04T07:37:47;97265.75;;;2.50;98.87
33185;BME280;19550;42.872;25.494;2023-12-04T07:40:14;97261.69;;;2.52;100.00
33185;BME280;19550;42.872;25.494;2023-12-04T07:42:42;97247.25;;;2.40;100.00
33185;BME280;19550;42.872;25.494;2023-12-04T07:45:10;97274.28;;;2.70;100.00
33185;BME280;19550;42.872;25.494;2023-12-04T07:47:37;97245.78;;;2.66;99.64
33185;BME280;19550;42.872;25.494;2023-12-04T07:50:05;97264.16;;;2.87;100.00
33185;BME280;19550;42.872;25.494;2023-12-04T07:52:33;97278.75;;;3.09;94.51
33185;BME280;19550;42.872;25.494;2023-12-04T07:55:00;97277.47;;;3.17;90.27
33185;BME280;19550;42.872;25.494;2023-12-04T07:57:27;97257.13;;;3.30;86.70
33185;BME280;19550;42.872;25.494;2023-12-04T07:59:54;97275.41;;;3.46;92.50
33185;BME280;19550;42.872;25.494;2023-12-04T08:02:21;97263.47;;;3.35;93.64
33185;BME280;19550;42.872;25.494;2023-12-04T08:04:47;97274.88;;;3.27;91.58
33185;BME280;19550;42.872;25.494;2023-12-04T08:07:14;97270.22;;;3.28;90.30
33185;BME280;19550;42.872;25.494;2023-12-04T08:09:43;97275.34;;;3.19;90.71
33185;BME280;19550;42.872;25.494;2023-12-04T08:12:09;97285.88;;;3.10;93.88
33185;BME280;19550;42.872;25.494;2023-12-04T08:14:36;97277.78;;;2.99;89.52
33185;BME280;19550;42.872;25.494;2023-12-04T08:17:03;97277.06;;;3.08;89.43
33185;BME280;19550;42.872;25.494;2023-12-04T08:19:31;97283.13;;;3.10;95.11
33185;BME280;19550;42.872;25.494;2023-12-04T08:21:58;97278.66;;;2.88;91.81
33185;BME280;19550;42.872;25.494;2023-12-04T08:24:25;97234.66;;;2.39;93.20
33185;BME280;19550;42.872;25.494;2023-12-04T08:26:53;97268.22;;;2.68;93.86
33185;BME280;19550;42.872;25.494;2023-12-04T08:29:20;97296.75;;;2.89;97.39
33185;BME280;19550;42.872;25.494;2023-12-04T08:31:46;97295.84;;;2.83;100.00
33185;BME280;19550;42.872;25.494;2023-12-04T08:34:13;97277.19;;;2.63;91.82
33185;BME280;19550;42.872;25.494;2023-12-04T08:36:41;97280.03;;;2.85;93.40
33185;BME280;19550;42.872;25.494;2023-12-04T08:39:07;97297.00;;;2.87;93.36
33185;BME280;19550;42.872;25.494;2023-12-04T08:41:34;97296.34;;;2.97;90.74
33185;BME280;19550;42.872;25.494;2023-12-04T08:44:03;97237.88;;;2.53;91.07
33185;BME280;19550;42.872;25.494;2023-12-04T08:46:29;97292.13;;;2.72;91.50
33185;BME280;19550;42.872;25.494;2023-12-04T08:48:56;97293.94;;;2.84;94.07
33185;BME280;19550;42.872;25.494;2023-12-04T08:51:23;97295.69;;;2.90;95.63
33185;BME280;19550;42.872;25.494;2023-12-04T08:53:50;97298.84;;;2.82;91.45
33185;BME280;19550;42.872;25.494;2023-12-04T08:56:17;97276.34;;;2.79;90.84
33185;BME280;19550;42.872;25.494;2023-12-04T08:58:43;97282.84;;;2.90;88.59
33185;BME280;19550;42.872;25.494;2023-12-04T09:01:12;97303.06;;;2.89;86.11
33185;BME280;19550;42.872;25.494;2023-12-04T09:03:38;97286.88;;;2.88;89.94
33185;BME280;19550;42.872;25.494;2023-12-04T09:06:06;97300.31;;;3.06;92.37
33185;BME280;19550;42.872;25.494;2023-12-04T09:08:34;97302.25;;;3.05;92.00
33185;BME280;19550;42.872;25.494;2023-12-04T09:11:01;97274.72;;;2.78;93.68
33185;BME280;19550;42.872;25.494;2023-12-04T09:13:28;97263.84;;;2.84;95.03
33185;BME280;19550;42.872;25.494;2023-12-04T09:15:57;97277.59;;;3.05;94.07
33185;BME280;19550;42.872;25.494;2023-12-04T09:18:25;97272.97;;;2.89;94.04
33185;BME280;19550;42.872;25.494;2023-12-04T09:20:52;97277.63;;;2.72;90.27
33185;BME280;19550;42.872;25.494;2023-12-04T09:23:18;97260.03;;;2.85;89.30
33185;BME280;19550;42.872;25.494;2023-12-04T09:25:45;97267.84;;;2.59;89.77
33185;BME280;19550;42.872;25.494;2023-12-04T09:28:12;97257.31;;;2.51;93.71
33185;BME280;19550;42.872;25.494;2023-12-04T09:30:39;97262.50;;;2.53;91.83
33185;BME280;19550;42.872;25.494;2023-12-04T09:33:06;97265.25;;;2.69;92.70
33185;BME280;19550;42.872;25.494;2023-12-04T09:35:34;97259.09;;;2.96;95.44
33185;BME280;19550;42.872;25.494;2023-12-04T09:38:01;97249.47;;;3.32;94.43
33185;BME280;19550;42.872;25.494;2023-12-04T09:40:28;97247.88;;;3.36;97.53
33185;BME280;19550;42.872;25.494;2023-12-04T09:42:55;97241.81;;;3.55;88.86
33185;BME280;19550;42.872;25.494;2023-12-04T09:45:23;97227.44;;;3.65;87.97
33185;BME280;19550;42.872;25.494;2023-12-04T09:47:50;97232.75;;;3.77;92.18
33185;BME280;19550;42.872;25.494;2023-12-04T09:50:18;97230.88;;;4.04;89.82
33185;BME280;19550;42.872;25.494;2023-12-04T09:52:49;97230.91;;;4.36;90.78
33185;BME280;19550;42.872;25.494;2023-12-04T09:55:16;97214.03;;;4.54;93.32
33185;BME280;19550;42.872;25.494;2023-12-04T09:57:44;97225.69;;;4.39;86.25
33185;BME280;19550;42.872;25.494;2023-12-04T10:00:14;97229.50;;;4.33;92.40
33185;BME280;19550;42.872;25.494;2023-12-04T10:02:42;97223.28;;;4.43;87.34
33185;BME280;19550;42.872;25.494;2023-12-04T10:05:09;97221.34;;;4.44;91.37
33185;BME280;19550;42.872;25.494;2023-12-04T10:07:36;97227.06;;;4.37;89.77
33185;BME280;19550;42.872;25.494;2023-12-04T10:10:06;97214.06;;;4.27;88.09
33185;BME280;19550;42.872;25.494;2023-12-04T10:12:33;97213.56;;;4.30;88.42
33185;BME280;19550;42.872;25.494;2023-12-04T10:15:05;97200.88;;;4.24;91.85
33185;BME280;19550;42.872;25.494;2023-12-04T10:17:33;97223.78;;;4.40;83.09
33185;BME280;19550;42.872;25.494;2023-12-04T10:20:05;97183.31;;;4.57;86.50
33185;BME280;19550;42.872;25.494;2023-12-04T10:22:37;97224.38;;;4.79;82.63
33185;BME280;19550;42.872;25.494;2023-12-04T10:25:15;97222.28;;;4.91;90.30
33185;BME280;19550;42.872;25.494;2023-12-04T10:27:43;97215.19;;;5.05;84.07
33185;BME280;19550;42.872;25.494;2023-12-04T10:30:22;97205.81;;;4.91;84.92
33185;BME280;19550;42.872;25.494;2023-12-04T10:32:49;97218.16;;;4.94;85.54
33185;BME280;19550;42.872;25.494;2023-12-04T10:35:20;97165.44;;;4.55;85.46
33185;BME280;19550;42.872;25.494;2023-12-04T10:37:48;97189.81;;;4.83;90.44
33185;BME280;19550;42.872;25.494;2023-12-04T10:40:24;97195.66;;;4.92;92.05
33185;BME280;19550;42.872;25.494;2023-12-04T10:42:51;97173.69;;;4.55;90.24
33185;BME280;19550;42.872;25.494;2023-12-04T10:45:18;97205.81;;;4.91;88.07
33185;BME280;19550;42.872;25.494;2023-12-04T10:47:47;97206.00;;;5.27;86.81
33185;BME280;19550;42.872;25.494;2023-12-04T10:50:16;97151.97;;;4.95;84.14
33185;BME280;19550;42.872;25.494;2023-12-04T10:52:44;97143.94;;;4.84;84.75
33185;BME280;19550;42.872;25.494;2023-12-04T10:55:12;97203.91;;;5.49;80.77
33185;BME280;19550;42.872;25.494;2023-12-04T10:57:43;97200.81;;;5.30;83.19
33185;BME280;19550;42.872;25.494;2023-12-04T11:00:11;97200.69;;;5.10;88.88
33185;BME280;19550;42.872;25.494;2023-12-04T11:02:43;97183.84;;;4.96;85.45
33185;BME280;19550;42.872;25.494;2023-12-04T11:05:15;97195.47;;;5.13;82.13
33185;BME280;19550;42.872;25.494;2023-12-04T11:07:48;97203.25;;;5.27;81.41
33185;BME280;19550;42.872;25.494;2023-12-04T11:10:17;97191.03;;;5.02;88.27
33185;BME280;19550;42.872;25.494;2023-12-04T11:12:48;97193.66;;;4.87;85.52
33185;BME280;19550;42.872;25.494;2023-12-04T11:15:22;97189.38;;;5.06;88.82
33185;BME280;19550;42.872;25.494;2023-12-04T11:17:55;97162.56;;;4.76;90.55
33185;BME280;19550;42.872;25.494;2023-12-04T11:20:24;97194.69;;;4.76;92.57
33185;BME280;19550;42.872;25.494;2023-12-04T11:22:53;97199.41;;;4.86;89.40
33185;BME280;19550;42.872;25.494;2023-12-04T11:25:22;97164.47;;;4.71;92.60
33185;BME280;19550;42.872;25.494;2023-12-04T11:27:52;97192.72;;;5.13;89.93
33185;BME280;19550;42.872;25.494;2023-12-04T11:30:19;97190.78;;;5.04;88.33
33185;BME280;19550;42.872;25.494;2023-12-04T11:32:48;97195.22;;;5.15;86.70
33185;BME280;19550;42.872;25.494;2023-12-04T11:35:17;97177.84;;;5.04;92.25
33185;BME280;19550;42.872;25.494;2023-12-04T11:37:44;97187.97;;;4.99;88.69
33185;BME280;19550;42.872;25.494;2023-12-04T11:40:12;97185.81;;;5.06;91.04
33185;BME280;19550;42.872;25.494;2023-12-04T11:42:39;97175.88;;;5.00;94.02
33185;BME280;19550;42.872;25.494;2023-12-04T11:45:08;97169.06;;;5.07;93.18
33185;BME280;19550;42.872;25.494;2023-12-04T11:47:49;97170.94;;;4.97;95.23
33185;BME280;19550;42.872;25.494;2023-12-04T11:50:17;97173.94;;;4.95;93.02
33185;BME280;19550;42.872;25.494;2023-12-04T11:52:44;97170.81;;;4.76;95.29
33185;BME280;19550;42.872;25.494;2023-12-04T11:55:12;97168.63;;;4.42;98.17
33185;BME280;19550;42.872;25.494;2023-12-04T11:57:42;97167.00;;;4.46;90.99
33185;BME280;19550;42.872;25.494;2023-12-04T12:00:12;97151.47;;;3.92;99.21
33185;BME280;19550;42.872;25.494;2023-12-04T12:02:47;97146.31;;;3.69;100.00
33185;BME280;19550;42.872;25.494;2023-12-04T12:05:14;97117.00;;;3.43;100.00
33185;BME280;19550;42.872;25.494;2023-12-04T12:07:42;97163.94;;;3.51;100.00
33185;BME280;19550;42.872;25.494;2023-12-04T12:10:10;97142.56;;;3.53;99.06
33185;BME280;19550;42.872;25.494;2023-12-04T12:12:55;97148.94;;;3.59;100.00
33185;BME280;19550;42.872;25.494;2023-12-04T12:15:33;97160.41;;;3.78;100.00
33185;BME280;19550;42.872;25.494;2023-12-04T12:18:00;97151.28;;;3.72;100.00
33185;BME280;19550;42.872;25.494;2023-12-04T12:20:27;97136.31;;;3.31;100.00
33185;BME280;19550;42.872;25.494;2023-12-04T12:22:54;97162.25;;;3.45;100.00
33185;BME280;19550;42.872;25.494;2023-12-04T12:25:28;97160.41;;;3.29;100.00
33185;BME280;19550;42.872;25.494;2023-12-04T12:27:55;97149.56;;;2.96;100.00
33185;BME280;19550;42.872;25.494;2023-12-04T12:30:22;97136.75;;;2.79;100.00
33185;BME280;19550;42.872;25.494;2023-12-04T12:32:51;97158.22;;;3.09;100.00
33185;BME280;19550;42.872;25.494;2023-12-04T12:35:18;97151.97;;;3.14;100.00
33185;BME280;19550;42.872;25.494;2023-12-04T12:37:46;97150.25;;;3.30;100.00
33185;BME280;19550;42.872;25.494;2023-12-04T12:40:13;97149.19;;;3.09;100.00
33185;BME280;19550;42.872;25.494;2023-12-04T12:42:40;97138.97;;;3.26;100.00
33185;BME280;19550;42.872;25.494;2023-12-04T12:45:09;97142.53;;;3.27;100.00
33185;BME280;19550;42.872;25.494;2023-12-04T12:47:37;97140.31;;;3.02;100.00
33185;BME280;19550;42.872;25.494;2023-12-04T12:50:08;97141.75;;;3.04;100.00
33185;BME280;19550;42.872;25.494;2023-12-04T12:52:38;97145.56;;;3.03;100.00
33185;BME280;19550;42.872;25.494;2023-12-04T12:55:06;97118.69;;;2.78;100.00